METAR Data
IDs: Format: Raw Decoded Include TAF

Data at: 1601 UTC 18 Feb 2019

METAR for:KMCW (Mason City Muni, IA, US)
Text:KMCW 181553Z AUTO 32008KT 10SM CLR M14/M16 A3041 RMK AO2 SLP317 T11441161
Temperature:-14.4°C ( 6°F)
Dewpoint:-16.1°C ( 3°F) [RH = 87%]
Pressure (altimeter):30.41 inches Hg (1029.9 mb) [Sea level pressure: 1031.7 mb]
Winds:from the NW (320 degrees) at 9 MPH (8 knots; 4.1 m/s)
Visibility:10 or more sm (16+ km)
Ceiling:at least 12,000 feet AGL
Clouds:sky clear below 12,000 feet AGL
QC Flag:automated observation with no human augmentation